Time;durP1;ratioP1;P1;durP2;ratioP2;P2;SDS_P1;SDS_P2;PMS_P1;PMS_P2;Temp;Humidity;BMP_temperature;BMP_pressure;BME280_temperature;BME280_humidity;BME280_pressure;Samples;Min_cycle;Max_cycle;Signal;HPM_P1;HPM_P2
2023/05/28 06:02:14;;;;;;;;;;;;;;;20.88;56.68;96849.44;4213187;27;10235;-71
2023/05/28 06:04:18;;;;;;;;;;;;;;;21.18;56.38;96846.16;4213363;28;5829;-70
2023/05/28 06:06:21;;;;;;;;;;;;;;;21.45;56.26;96846.06;4213227;28;5776;-72
2023/05/28 06:08:27;;;;;;;;;;;;;;;21.66;55.38;96849.69;4212553;28;5788;-71
2023/05/28 06:10:30;;;;;;;;;;;;;;;21.80;55.32;96851.63;4211988;28;5837;-71
2023/05/28 06:12:33;;;;;;;;;;;;;;;21.97;55.24;96850.59;4205311;28;5851;-71
2023/05/28 06:14:36;;;;;;;;;;;;;;;22.07;55.11;96845.28;4212773;28;5870;-72
2023/05/28 06:16:39;;;;;;;;;;;;;;;22.17;55.06;96849.88;4212120;28;5777;-70
2023/05/28 06:18:43;;;;;;;;;;;;;;;22.28;54.43;96854.22;4213124;28;6390;-70
2023/05/28 06:20:46;;;;;;;;;;;;;;;22.34;54.39;96855.84;4211200;28;6671;-70
2023/05/28 06:22:50;;;;;;;;;;;;;;;22.46;54.40;96855.59;4212849;28;5781;-70
2023/05/28 06:24:55;;;;;;;;;;;;;;;22.56;54.42;96852.94;4212952;28;5772;-70
2023/05/28 06:26:58;;;;;;;;;;;;;;;22.64;54.39;96855.88;4205455;28;6482;-70
2023/05/28 06:29:01;;;;;;;;;;;;;;;22.70;54.09;96856.69;4213146;28;5840;-69
2023/05/28 06:31:04;;;;;;;;;;;;;;;22.77;54.00;96848.38;4212779;28;5695;-70
2023/05/28 06:33:08;;;;;;;;;;;;;;;22.81;54.13;96844.84;4212380;28;5860;-71
2023/05/28 06:35:13;;;;;;;;;;;;;;;22.89;53.69;96854.31;4204227;28;5670;-71
2023/05/28 06:37:16;;;;;;;;;;;;;;;22.93;53.92;96847.31;4204594;28;5694;-70
2023/05/28 06:39:19;;;;;;;;;;;;;;;22.97;53.35;96847.56;4212361;28;5075;-70
2023/05/28 06:41:22;;;;;;;;;;;;;;;23.02;53.13;96845.69;4212750;28;5891;-70
2023/05/28 06:43:25;;;;;;;;;;;;;;;23.05;53.18;96845.13;4205131;28;5768;-71
2023/05/28 06:45:28;;;;;;;;;;;;;;;23.05;53.33;96845.13;4200889;28;5821;-70
2023/05/28 06:47:31;;;;;;;;;;;;;;;23.11;53.07;96846.75;4202686;28;5859;-70
2023/05/28 06:49:35;;;;;;;;;;;;;;;23.16;53.19;96845.94;4210131;28;5770;-70
2023/05/28 06:51:39;;;;;;;;;;;;;;;23.19;52.57;96838.09;4207231;28;5783;-70
2023/05/28 06:53:42;;;;;;;;;;;;;;;23.20;52.93;96841.59;4206794;28;5809;-70
2023/05/28 06:55:45;;;;;;;;;;;;;;;23.18;52.44;96839.19;4201963;28;5422;-71
2023/05/28 06:57:48;;;;;;;;;;;;;;;23.16;52.25;96835.94;4207946;28;5685;-72
2023/05/28 06:59:54;;;;;;;;;;;;;;;23.18;52.61;96832.97;4207493;28;5722;-70
2023/05/28 07:01:56;;;;;;;;;;;;;;;23.16;51.89;96835.94;4201755;28;5690;-70
2023/05/28 07:03:59;;;;;;;;;;;;;;;23.12;52.06;96828.69;4193930;28;5710;-70
2023/05/28 07:06:03;;;;;;;;;;;;;;;23.14;52.18;96840.81;4196813;28;5873;-70
2023/05/28 07:08:08;;;;;;;;;;;;;;;23.12;51.74;96831.38;4197408;28;5813;-70
2023/05/28 07:10:11;;;;;;;;;;;;;;;23.12;51.90;96837.59;4197388;28;5685;-70
2023/05/28 07:12:18;;;;;;;;;;;;;;;23.10;51.67;96837.03;4190912;28;5893;-71
2023/05/28 07:14:21;;;;;;;;;;;;;;;23.06;51.44;96833.25;4193831;28;5896;-71
2023/05/28 07:16:25;;;;;;;;;;;;;;;23.04;51.59;96827.34;4200020;28;5781;-71
2023/05/28 07:18:28;;;;;;;;;;;;;;;23.04;51.68;96835.44;4192769;28;5685;-71
2023/05/28 07:20:31;;;;;;;;;;;;;;;23.05;51.26;96830.84;4189444;28;5806;-71
2023/05/28 07:22:34;;;;;;;;;;;;;;;23.07;51.45;96836.78;4188018;28;5803;-71
2023/05/28 07:24:38;;;;;;;;;;;;;;;22.99;51.33;96827.34;4190493;28;6075;-71
2023/05/28 07:26:41;;;;;;;;;;;;;;;22.96;51.55;96822.50;4193555;28;5705;-70
2023/05/28 07:28:44;;;;;;;;;;;;;;;22.98;51.43;96830.31;4195639;28;6939;-71
2023/05/28 07:30:47;;;;;;;;;;;;;;;22.98;50.82;96827.59;4198401;28;6493;-71
2023/05/28 07:32:50;;;;;;;;;;;;;;;22.94;50.92;96827.34;4192620;28;5840;-70
2023/05/28 07:34:53;;;;;;;;;;;;;;;22.94;50.72;96825.47;4194957;28;5760;-70
2023/05/28 07:36:57;;;;;;;;;;;;;;;22.92;50.82;96824.13;4193050;28;5849;-71
2023/05/28 07:39:01;;;;;;;;;;;;;;;22.88;50.92;96828.44;4189773;28;5677;-71
2023/05/28 07:41:05;;;;;;;;;;;;;;;22.86;50.82;96825.19;4185924;28;5886;-70
2023/05/28 07:43:09;;;;;;;;;;;;;;;22.86;50.71;96834.09;4187582;28;5753;-70
2023/05/28 07:45:11;;;;;;;;;;;;;;;22.85;50.41;96829.78;4191891;28;5718;-70
2023/05/28 07:47:15;;;;;;;;;;;;;;;22.83;50.46;96831.94;4186112;28;5707;-70
2023/05/28 07:49:19;;;;;;;;;;;;;;;22.80;50.34;96829.75;4196402;28;6889;-71
2023/05/28 07:51:22;;;;;;;;;;;;;;;22.78;50.29;96828.41;4190414;28;5833;-71
2023/05/28 07:53:24;;;;;;;;;;;;;;;22.79;50.41;96830.84;4192679;28;5788;-70
2023/05/28 07:55:27;;;;;;;;;;;;;;;22.79;49.92;96828.16;4185325;28;6001;-71
2023/05/28 07:57:32;;;;;;;;;;;;;;;22.80;50.07;96823.56;4197728;28;5690;-70
2023/05/28 07:59:35;;;;;;;;;;;;;;;22.83;49.81;96821.16;4198802;28;5701;-71
2023/05/28 08:01:38;;;;;;;;;;;;;;;22.85;50.13;96819.00;4198995;28;5694;-71
2023/05/28 08:03:41;;;;;;;;;;;;;;;22.84;49.95;96817.38;4199764;28;5770;-70
2023/05/28 08:05:44;;;;;;;;;;;;;;;22.84;50.04;96817.38;4200256;28;5847;-69
2023/05/28 08:07:47;;;;;;;;;;;;;;;22.86;49.65;96811.72;4203958;28;5823;-70
2023/05/28 08:09:50;;;;;;;;;;;;;;;22.84;49.96;96812.00;4196642;28;6791;-70
2023/05/28 08:11:53;;;;;;;;;;;;;;;22.83;49.50;96815.75;4199732;28;5696;-70
2023/05/28 08:13:57;;;;;;;;;;;;;;;22.83;49.77;96815.75;4192631;28;5792;-70
2023/05/28 08:16:00;;;;;;;;;;;;;;;22.84;49.60;96813.88;4187317;28;5673;-70
2023/05/28 08:18:07;;;;;;;;;;;;;;;22.83;49.30;96810.38;4193614;28;5714;-70
2023/05/28 08:20:11;;;;;;;;;;;;;;;22.86;49.37;96809.03;4195568;28;5780;-72
2023/05/28 08:22:14;;;;;;;;;;;;;;;22.87;49.48;96811.44;4196050;28;5705;-70
2023/05/28 08:24:18;;;;;;;;;;;;;;;22.90;49.10;96813.63;4198807;28;5667;-71
2023/05/28 08:26:21;;;;;;;;;;;;;;;22.93;49.33;96806.88;4192368;28;5849;-70
2023/05/28 08:28:25;;;;;;;;;;;;;;;22.93;49.05;96807.69;4204191;28;5887;-71
2023/05/28 08:30:29;;;;;;;;;;;;;;;22.94;49.44;96803.91;4199184;28;5751;-71
2023/05/28 08:32:32;;;;;;;;;;;;;;;22.97;49.52;96805.22;4197288;28;5689;-70
2023/05/28 08:34:36;;;;;;;;;;;;;;;23.00;49.48;96803.91;4197637;28;5705;-70
2023/05/28 08:36:39;;;;;;;;;;;;;;;23.01;49.77;96795.53;4195099;28;5689;-71
2023/05/28 08:38:44;;;;;;;;;;;;;;;23.03;49.72;96803.34;4194340;28;6565;-71
2023/05/28 08:40:51;;;;;;;;;;;;;;;23.02;49.61;96802.53;4198152;28;5122;-71
2023/05/28 08:42:55;;;;;;;;;;;;;;;23.01;49.55;96800.13;4189461;28;5701;-71
2023/05/28 08:44:58;;;;;;;;;;;;;;;22.98;49.58;96787.97;4191237;28;5693;-70
2023/05/28 08:47:02;;;;;;;;;;;;;;;22.97;49.94;96797.16;4193149;28;5789;-70
2023/05/28 08:49:06;;;;;;;;;;;;;;;22.98;49.66;96789.88;4198409;28;5848;-71
2023/05/28 08:51:11;;;;;;;;;;;;;;;22.94;50.01;96785.03;4192460;28;5788;-71
2023/05/28 08:53:17;;;;;;;;;;;;;;;22.92;49.69;96786.38;4190974;28;5912;-71
2023/05/28 08:55:20;;;;;;;;;;;;;;;22.92;50.05;96787.19;4196749;28;5803;-71
2023/05/28 08:57:23;;;;;;;;;;;;;;;22.92;49.69;96786.38;4199511;28;5693;-69
2023/05/28 08:59:27;;;;;;;;;;;;;;;22.88;50.16;96790.72;4196998;28;5776;-70
2023/05/28 09:01:30;;;;;;;;;;;;;;;22.88;50.20;96785.31;4196629;28;5701;-70
2023/05/28 09:03:36;;;;;;;;;;;;;;;22.89;49.69;96790.44;4189380;28;6590;-70
2023/05/28 09:05:39;;;;;;;;;;;;;;;22.90;50.17;96791.25;4194435;28;5760;-71
2023/05/28 09:07:42;;;;;;;;;;;;;;;22.87;49.63;96783.69;4196584;28;6529;-70
2023/05/28 09:09:46;;;;;;;;;;;;;;;22.88;49.97;96788.03;4193176;28;5709;-75
2023/05/28 09:11:51;;;;;;;;;;;;;;;22.87;49.90;96786.38;4201057;28;5702;-72
2023/05/28 09:13:54;;;;;;;;;;;;;;;22.88;49.56;96790.72;4190671;28;5877;-67
2023/05/28 09:15:57;;;;;;;;;;;;;;;22.90;49.47;96777.78;4194220;28;5833;-78
2023/05/28 09:18:00;;;;;;;;;;;;;;;22.90;49.71;96783.97;4197084;28;5873;-78
2023/05/28 09:20:12;;;;;;;;;;;;;;;22.91;49.14;96785.56;4196231;28;5694;-78
2023/05/28 09:22:16;;;;;;;;;;;;;;;22.91;49.57;96784.78;4200703;28;6496;-71
2023/05/28 09:24:24;;;;;;;;;;;;;;;22.91;49.42;96768.59;4197063;28;5805;-73
2023/05/28 09:26:29;;;;;;;;;;;;;;;22.92;49.13;96778.28;4199047;28;5776;-74
2023/05/28 09:28:34;;;;;;;;;;;;;;;22.95;49.05;96775.06;4195363;28;5431;-74
2023/05/28 09:30:37;;;;;;;;;;;;;;;22.97;48.76;96772.06;4187151;28;5832;-73
2023/05/28 09:32:41;;;;;;;;;;;;;;;22.97;49.04;96772.06;4191642;28;6573;-73
2023/05/28 09:34:44;;;;;;;;;;;;;;;22.94;48.67;96762.66;4190464;28;5702;-73
2023/05/28 09:36:52;;;;;;;;;;;;;;;22.94;48.99;96773.44;4188945;28;5691;-74
2023/05/28 09:38:55;;;;;;;;;;;;;;;22.96;49.04;96765.88;4188780;28;5897;-73
2023/05/28 09:40:58;;;;;;;;;;;;;;;22.98;48.77;96762.91;4198672;28;5259;-73
2023/05/28 09:43:05;;;;;;;;;;;;;;;23.01;48.76;96765.09;4196709;28;5929;-73
2023/05/28 09:45:09;;;;;;;;;;;;;;;23.01;48.79;96757.81;4192388;28;5707;-73
2023/05/28 09:47:15;;;;;;;;;;;;;;;23.03;48.49;96750.25;4189804;28;5776;-73
2023/05/28 09:49:18;;;;;;;;;;;;;;;23.03;48.27;96752.94;4197601;28;5784;-73
2023/05/28 09:51:24;;;;;;;;;;;;;;;23.06;48.53;96756.97;4198260;28;5781;-73
2023/05/28 09:53:30;;;;;;;;;;;;;;;23.06;48.49;96754.28;4196619;28;5743;-73
2023/05/28 09:55:35;;;;;;;;;;;;;;;23.05;48.04;96758.06;4196465;28;5776;-72
2023/05/28 09:57:45;;;;;;;;;;;;;;;23.09;48.23;96759.09;4196897;28;6480;-72
2023/05/28 09:59:54;;;;;;;;;;;;;;;23.12;48.18;96754.00;4191559;28;6742;-72
2023/05/28 10:02:01;;;;;;;;;;;;;;;23.14;48.09;96751.81;4195191;28;5909;-72
2023/05/28 10:04:08;;;;;;;;;;;;;;;23.14;47.78;96748.31;4189810;28;6371;-73
2023/05/28 10:06:17;;;;;;;;;;;;;;;23.13;47.82;96744.81;4190545;28;5780;-72
2023/05/28 10:08:22;;;;;;;;;;;;;;;23.12;47.94;96745.91;4191196;28;5828;-72
2023/05/28 10:10:28;;;;;;;;;;;;;;;23.13;47.66;96749.41;4199154;28;5788;-72
2023/05/28 10:12:31;;;;;;;;;;;;;;;23.15;47.78;96753.44;4197135;28;5098;-73
2023/05/28 10:14:36;;;;;;;;;;;;;;;23.19;47.55;96743.72;4193642;28;5768;-73
2023/05/28 10:16:40;;;;;;;;;;;;;;;23.23;47.94;96749.38;4194641;28;5764;-73
2023/05/28 10:18:44;;;;;;;;;;;;;;;23.24;47.49;96738.31;4199016;28;5795;-73
2023/05/28 10:20:47;;;;;;;;;;;;;;;23.28;47.71;96740.44;4195751;28;5690;-73
2023/05/28 10:22:51;;;;;;;;;;;;;;;23.28;47.33;96735.06;4185107;28;5949;-73
2023/05/28 10:24:55;;;;;;;;;;;;;;;23.30;47.52;96738.28;4187333;28;5797;-73
2023/05/28 10:27:00;;;;;;;;;;;;;;;23.32;47.24;96742.31;4194829;28;5773;-73
2023/05/28 10:29:08;;;;;;;;;;;;;;;23.30;47.16;96739.09;4185367;28;5774;-73
2023/05/28 10:31:11;;;;;;;;;;;;;;;;;;4190954;28;5757;-73
2023/05/28 10:33:17;;;;;;;;;;;;;;;23.34;47.46;96739.38;4191086;28;5881;-73
2023/05/28 10:35:20;;;;;;;;;;;;;;;23.36;47.42;96739.91;4196901;28;5874;-73
2023/05/28 10:37:26;;;;;;;;;;;;;;;23.39;47.41;96742.84;4182399;28;5907;-73
2023/05/28 10:39:38;;;;;;;;;;;;;;;23.38;47.27;96729.63;4190024;28;5941;-73
2023/05/28 10:41:45;;;;;;;;;;;;;;;23.37;47.28;96731.53;4187330;28;5833;-74
2023/05/28 10:43:53;;;;;;;;;;;;;;;23.38;47.08;96724.22;4200902;28;6737;-74
2023/05/28 10:45:58;;;;;;;;;;;;;;;23.38;47.00;96725.03;4189367;28;5901;-74
2023/05/28 10:48:02;;;;;;;;;;;;;;;23.35;47.19;96719.41;4199439;28;5863;-75
2023/05/28 10:50:13;;;;;;;;;;;;;;;23.39;47.11;96715.06;4226061;28;5627;-77
2023/05/28 10:52:22;;;;;;;;;;;;;;;23.40;46.79;96711.28;4194214;28;5886;-72
2023/05/28 10:54:40;;;;;;;;;;;;;;;23.41;46.95;96719.09;4198138;28;6602;-79
2023/05/28 10:57:10;;;;;;;;;;;;;;;23.41;46.73;96712.88;4192885;28;6076;-79
2023/05/28 10:59:16;;;;;;;;;;;;;;;23.41;46.57;96708.28;4198047;28;5895;-80
2023/05/28 11:01:21;;;;;;;;;;;;;;;23.43;46.82;96699.91;4192565;28;5681;-79
2023/05/28 11:03:40;;;;;;;;;;;;;;;23.47;46.60;96695.59;4196619;28;5908;-77
2023/05/28 11:05:45;;;;;;;;;;;;;;;23.48;46.77;96691.81;4193910;28;5130;-77
2023/05/28 11:07:48;;;;;;;;;;;;;;;23.49;46.64;96688.03;4186819;28;5735;-73
2023/05/28 11:09:52;;;;;;;;;;;;;;;23.48;46.50;96686.41;4189660;28;5871;-73
2023/05/28 11:11:59;;;;;;;;;;;;;;;23.49;46.45;96685.34;4190605;28;8507;-73
2023/05/28 11:14:02;;;;;;;;;;;;;;;23.49;46.77;96683.44;4188200;28;5702;-74
2023/05/28 11:16:11;;;;;;;;;;;;;;;23.50;46.79;96673.44;4191540;28;5718;-73
2023/05/28 11:18:14;;;;;;;;;;;;;;;23.53;46.61;96683.69;4183262;28;5957;-73
2023/05/28 11:20:21;;;;;;;;;;;;;;;23.51;46.33;96672.38;4196177;28;5833;-73
2023/05/28 11:22:35;;;;;;;;;;;;;;;23.51;46.66;96669.66;4186686;28;5941;-73
2023/05/28 11:24:59;;;;;;;;;;;;;;;23.53;46.33;96676.38;4197634;28;5788;-73
2023/05/28 11:27:04;;;;;;;;;;;;;;;23.54;46.45;96674.50;4195328;28;5693;-74
2023/05/28 11:29:07;;;;;;;;;;;;;;;23.55;46.21;96673.41;4200587;28;6335;-74
2023/05/28 11:31:12;;;;;;;;;;;;;;;23.55;46.41;96676.09;4192543;28;6459;-74
2023/05/28 11:33:15;;;;;;;;;;;;;;;23.54;46.39;96678.00;4197953;28;5811;-73
2023/05/28 11:35:18;;;;;;;;;;;;;;;23.54;46.46;96669.91;4197998;28;5686;-73
2023/05/28 11:37:26;;;;;;;;;;;;;;;23.54;46.32;96671.81;4189488;28;5722;-73
2023/05/28 11:39:29;;;;;;;;;;;;;;;23.57;45.99;96665.88;4189471;28;5847;-73
2023/05/28 11:41:32;;;;;;;;;;;;;;;23.58;46.12;96664.81;4188580;28;5944;-73
2023/05/28 11:43:37;;;;;;;;;;;;;;;23.57;46.33;96657.78;4196829;28;5697;-73
2023/05/28 11:45:41;;;;;;;;;;;;;;;23.60;46.35;96646.44;4194666;28;5686;-74
2023/05/28 11:47:48;;;;;;;;;;;;;;;23.62;46.14;96652.38;4198713;28;5938;-72
2023/05/28 11:49:51;;;;;;;;;;;;;;;23.66;45.81;96652.59;4191508;28;5795;-73
2023/05/28 11:51:54;;;;;;;;;;;;;;;23.70;45.69;96650.97;4187809;28;5897;-73
2023/05/28 11:53:57;;;;;;;;;;;;;;;23.71;45.63;96648.00;4195829;28;5701;-73
2023/05/28 11:56:00;;;;;;;;;;;;;;;23.73;46.07;96645.00;4192343;28;5832;-73
2023/05/28 11:58:03;;;;;;;;;;;;;;;23.75;45.59;96642.84;4194595;28;5813;-73
2023/05/28 12:00:11;;;;;;;;;;;;;;;23.77;46.14;96644.16;4190245;28;5715;-73
2023/05/28 12:02:18;;;;;;;;;;;;;;;23.79;46.12;96643.91;4194171;28;5802;-73
2023/05/28 12:04:24;;;;;;;;;;;;;;;23.79;45.85;96635.81;4186030;28;5707;-73
2023/05/28 12:06:27;;;;;;;;;;;;;;;23.80;45.86;96640.91;4192549;28;5868;-74
2023/05/28 12:08:41;;;;;;;;;;;;;;;23.82;45.90;96632.53;4191069;28;5808;-73
2023/05/28 12:10:44;;;;;;;;;;;;;;;23.84;45.70;96629.53;4185600;28;5884;-73
2023/05/28 12:12:50;;;;;;;;;;;;;;;23.86;45.63;96633.56;4188826;28;5697;-73
2023/05/28 12:14:52;;;;;;;;;;;;;;;23.88;45.70;96631.38;4195674;28;6453;-73
2023/05/28 12:16:55;;;;;;;;;;;;;;;23.90;46.07;96631.09;4194506;28;5820;-73
2023/05/28 12:19:02;;;;;;;;;;;;;;;23.93;45.61;96634.06;4200073;28;5681;-73
2023/05/28 12:21:11;;;;;;;;;;;;;;;23.98;45.75;96630.50;4198797;28;6567;-73
2023/05/28 12:23:14;;;;;;;;;;;;;;;23.97;45.61;96627.00;4192080;28;5088;-73
2023/05/28 12:25:16;;;;;;;;;;;;;;;23.97;45.72;96618.91;4190175;28;5789;-74
2023/05/28 12:27:20;;;;;;;;;;;;;;;24.03;46.05;96616.97;4198057;28;5728;-75
2023/05/28 12:29:24;;;;;;;;;;;;;;;24.05;45.40;96623.72;4190754;28;5869;-74
2023/05/28 12:31:28;;;;;;;;;;;;;;;24.07;45.51;96618.00;4197029;28;5793;-74
2023/05/28 12:33:31;;;;;;;;;;;;;;;24.08;45.92;96615.03;4200159;28;5939;-74
2023/05/28 12:35:34;;;;;;;;;;;;;;;24.10;45.44;96612.03;4200249;28;5678;-74
2023/05/28 12:37:38;;;;;;;;;;;;;;;24.13;45.77;96602.59;4190338;28;5772;-74
2023/05/28 12:39:41;;;;;;;;;;;;;;;24.14;45.50;96609.59;4196161;28;5810;-74
2023/05/28 12:41:44;;;;;;;;;;;;;;;24.15;45.46;96603.91;4195516;28;5144;-74
2023/05/28 12:43:47;;;;;;;;;;;;;;;24.16;45.31;96605.53;4196947;28;5824;-74
2023/05/28 12:45:50;;;;;;;;;;;;;;;24.16;45.79;96593.91;4193987;28;5888;-74
2023/05/28 12:47:53;;;;;;;;;;;;;;;24.18;45.59;96589.84;4195904;28;5698;-73
2023/05/28 12:49:56;;;;;;;;;;;;;;;24.16;45.62;96580.41;4192077;28;5844;-75
2023/05/28 12:51:59;;;;;;;;;;;;;;;24.18;45.54;96581.72;4186235;28;5697;-74
2023/05/28 12:54:04;;;;;;;;;;;;;;;24.18;45.73;96581.72;4184310;28;5686;-73
2023/05/28 12:56:10;;;;;;;;;;;;;;;24.20;45.82;96579.53;4187278;28;5762;-74
2023/05/28 12:58:17;;;;;;;;;;;;;;;24.21;45.20;96575.75;4188351;28;5857;-74
2023/05/28 13:00:24;;;;;;;;;;;;;;;24.23;45.52;96578.16;4190947;28;5780;-73
2023/05/28 13:02:28;;;;;;;;;;;;;;;24.23;45.60;96567.34;4194026;28;6021;-74
2023/05/28 13:04:35;;;;;;;;;;;;;;;24.25;45.51;96560.59;4186328;28;5904;-74
2023/05/28 13:06:40;;;;;;;;;;;;;;;24.28;45.55;96554.63;4191044;28;5816;-74
2023/05/28 13:08:46;;;;;;;;;;;;;;;24.32;45.63;96552.16;4200533;28;6301;-74
2023/05/28 13:10:54;;;;;;;;;;;;;;;24.36;45.18;96545.94;4186745;28;6590;-75
2023/05/28 13:12:58;;;;;;;;;;;;;;;24.38;45.12;96545.63;4189478;28;5715;-74
2023/05/28 13:15:03;;;;;;;;;;;;;;;24.38;45.63;96542.94;4188986;28;5803;-74
2023/05/28 13:17:06;;;;;;;;;;;;;;;24.38;45.55;96537.53;4195269;28;5697;-74
2023/05/28 13:19:10;;;;;;;;;;;;;;;24.39;45.48;96545.34;4193260;28;5730;-73
2023/05/28 13:21:13;;;;;;;;;;;;;;;24.39;45.51;96539.13;4185672;28;5938;-74
2023/05/28 13:23:16;;;;;;;;;;;;;;;24.37;45.35;96542.13;4191826;28;5779;-74
2023/05/28 13:25:20;;;;;;;;;;;;;;;24.39;45.71;96537.25;4191437;28;5776;-73
2023/05/28 13:27:24;;;;;;;;;;;;;;;24.42;45.74;96535.06;4189291;28;5837;-74
2023/05/28 13:29:28;;;;;;;;;;;;;;;24.43;45.42;96539.34;4185683;28;5673;-74
2023/05/28 13:31:34;;;;;;;;;;;;;;;24.42;45.38;96526.94;4186308;28;5776;-74
2023/05/28 13:33:38;;;;;;;;;;;;;;;24.44;45.70;96524.75;4192859;28;5929;-75
2023/05/28 13:35:41;;;;;;;;;;;;;;;24.46;45.22;96522.56;4183919;28;6005;-75
2023/05/28 13:37:44;;;;;;;;;;;;;;;24.48;45.20;96517.69;4196406;28;5616;-73
2023/05/28 13:39:48;;;;;;;;;;;;;;;24.49;45.56;96522.00;4201575;28;6422;-73
2023/05/28 13:41:53;;;;;;;;;;;;;;;24.52;45.34;96516.03;4188607;28;5972;-73
2023/05/28 13:43:58;;;;;;;;;;;;;;;24.53;45.48;96523.03;4198151;28;5828;-73
2023/05/28 13:46:01;;;;;;;;;;;;;;;24.53;45.23;96518.44;4189821;28;5689;-74
2023/05/28 13:48:04;;;;;;;;;;;;;;;24.52;45.08;96508.72;4187028;28;6695;-74
2023/05/28 13:50:09;;;;;;;;;;;;;;;24.52;45.15;96505.22;4189584;28;5710;-74
2023/05/28 13:52:12;;;;;;;;;;;;;;;24.52;45.36;96502.50;4192479;28;5673;-74
2023/05/28 13:54:14;;;;;;;;;;;;;;;24.53;45.51;96504.91;4186841;28;5837;-74
2023/05/28 13:56:18;;;;;;;;;;;;;;;24.53;45.29;96510.31;4193514;28;6521;-74
2023/05/28 13:58:21;;;;;;;;;;;;;;;24.59;45.19;96502.97;4183668;28;5925;-74
2023/05/28 14:00:25;;;;;;;;;;;;;;;24.59;45.13;96495.66;4188371;28;5744;-74
2023/05/28 14:02:40;;;;;;;;;;;;;;;24.60;45.23;96485.66;4154485;28;6342;-74
2023/05/28 14:04:43;;;;;;;;;;;;;;;24.61;44.88;96488.06;4160230;28;5383;-75
2023/05/28 14:06:46;;;;;;;;;;;;;;;24.61;44.75;96488.06;4164720;28;5729;-74
2023/05/28 14:08:49;;;;;;;;;;;;;;;24.61;45.04;96487.25;4160455;28;5721;-74
2023/05/28 14:10:52;;;;;;;;;;;;;;;24.65;45.08;96488.28;4162453;28;5831;-74
2023/05/28 14:12:56;;;;;;;;;;;;;;;24.67;44.84;96488.78;4164071;28;5888;-75
2023/05/28 14:14:59;;;;;;;;;;;;;;;24.70;45.09;96485.53;4166818;28;5728;-75
2023/05/28 14:17:03;;;;;;;;;;;;;;;24.73;45.13;96484.13;4161627;28;5765;-75
2023/05/28 14:19:06;;;;;;;;;;;;;;;24.71;44.60;96475.53;4159165;28;5765;-75
2023/05/28 14:21:11;;;;;;;;;;;;;;;24.73;44.73;96479.53;4173456;28;5735;-76
2023/05/28 14:23:14;;;;;;;;;;;;;;;24.79;44.21;96477.56;4160341;28;5855;-75
2023/05/28 14:25:17;;;;;;;;;;;;;;;24.86;43.96;96484.22;4164926;28;5728;-75
2023/05/28 14:27:20;;;;;;;;;;;;;;;24.89;43.33;96472.81;4165363;28;5862;-75
2023/05/28 14:29:23;;;;;;;;;;;;;;;25.01;43.17;96475.09;4165273;28;5895;-76
2023/05/28 14:31:26;;;;;;;;;;;;;;;25.08;42.70;96469.34;4164113;28;5723;-75
2023/05/28 14:33:31;;;;;;;;;;;;;;;25.18;41.81;96461.06;4162283;28;5733;-73
2023/05/28 14:35:34;;;;;;;;;;;;;;;25.30;41.95;96472.25;4166297;28;5891;-74
2023/05/28 14:37:36;;;;;;;;;;;;;;;25.32;41.66;96466.53;4165716;28;5855;-75
2023/05/28 14:39:39;;;;;;;;;;;;;;;25.32;41.56;96478.16;4155261;28;5846;-75
2023/05/28 14:41:42;;;;;;;;;;;;;;;25.32;41.53;96463.81;4160409;28;5819;-75
2023/05/28 14:43:46;;;;;;;;;;;;;;;25.29;41.84;96467.94;4151007;28;5819;-75
2023/05/28 14:45:49;;;;;;;;;;;;;;;25.22;42.07;96460.19;4155219;28;5847;-73
2023/05/28 14:47:54;;;;;;;;;;;;;;;25.21;42.18;96465.88;4164027;28;6354;-76
2023/05/28 14:49:59;;;;;;;;;;;;;;;25.16;42.42;96463.28;4167727;28;5740;-77
2023/05/28 14:52:24;;;;;;;;;;;;;;;25.14;42.18;96468.16;4164693;28;5733;-68
2023/05/28 14:54:28;;;;;;;;;;;;;;;25.11;42.14;96463.34;4158921;28;5735;-75
2023/05/28 14:56:31;;;;;;;;;;;;;;;25.10;41.96;96457.13;4161589;28;5925;-72
2023/05/28 14:58:39;;;;;;;;;;;;;;;25.10;42.09;96451.72;4167835;28;5732;-73
2023/05/28 15:00:46;;;;;;;;;;;;;;;25.24;41.32;96443.66;4164118;28;5863;-77
2023/05/28 15:02:54;;;;;;;;;;;;;;;25.36;41.07;96443.19;4189364;28;5713;-74
2023/05/28 15:04:59;;;;;;;;;;;;;;;25.48;40.03;96441.66;4196879;28;5832;-77
2023/05/28 15:07:03;;;;;;;;;;;;;;;25.59;40.11;96441.44;4202305;28;5676;-75
2023/05/28 15:09:06;;;;;;;;;;;;;;;25.66;39.70;96441.88;4201901;28;5792;-72
2023/05/28 15:11:14;;;;;;;;;;;;;;;25.62;39.56;96433.56;4197445;28;5697;-78
2023/05/28 15:13:17;;;;;;;;;;;;;;;25.64;39.20;96439.47;4192852;28;5919;-69
2023/05/28 15:15:22;;;;;;;;;;;;;;;25.71;38.69;96433.66;4190385;28;5802;-78
2023/05/28 15:17:25;;;;;;;;;;;;;;;25.78;38.26;96434.09;4191290;28;5730;-74
2023/05/28 15:19:28;;;;;;;;;;;;;;;25.87;38.07;96431.50;4198848;28;5743;-72
2023/05/28 15:21:38;;;;;;;;;;;;;;;25.89;37.64;96435.50;4191831;28;5809;-78
2023/05/28 15:23:42;;;;;;;;;;;;;;;25.94;37.21;96430.00;4189397;28;5823;-75
2023/05/28 15:25:49;;;;;;;;;;;;;;;25.97;37.16;96434.81;4194236;28;5792;-75
2023/05/28 15:27:53;;;;;;;;;;;;;;;26.04;37.00;96437.91;4195059;28;5813;-79
2023/05/28 15:30:03;;;;;;;;;;;;;;;26.05;37.00;96426.00;4189020;28;5849;-74
2023/05/28 15:32:09;;;;;;;;;;;;;;;26.02;36.75;96423.88;4191875;28;6028;-71
2023/05/28 15:34:16;;;;;;;;;;;;;;;26.02;36.73;96439.31;4192560;28;5794;-77
2023/05/28 15:36:19;;;;;;;;;;;;;;;26.02;36.79;96444.75;4189714;28;5792;-78
2023/05/28 15:38:28;;;;;;;;;;;;;;;26.04;36.09;96434.41;4189815;28;5853;-75
2023/05/28 15:40:32;;;;;;;;;;;;;;;26.08;36.15;96438.13;4198279;28;5848;-74
2023/05/28 15:42:36;;;;;;;;;;;;;;;26.09;36.25;96439.75;4193071;28;5831;-72
2023/05/28 15:44:40;;;;;;;;;;;;;;;26.05;35.91;96431.44;4194909;28;5757;-77
2023/05/28 15:46:44;;;;;;;;;;;;;;;26.06;36.12;96435.75;4196249;28;6396;-70
2023/05/28 15:48:47;;;;;;;;;;;;;;;26.10;35.54;96434.03;4185361;28;5706;-68
2023/05/28 15:50:51;;;;;;;;;;;;;;;26.17;35.19;96432.84;4193246;28;5919;-72
2023/05/28 15:52:55;;;;;;;;;;;;;;;26.20;35.03;96421.38;4194363;28;6049;-74
2023/05/28 15:55:01;;;;;;;;;;;;;;;26.16;35.18;96434.72;4190328;28;6569;-68
2023/05/28 15:57:04;;;;;;;;;;;;;;;26.17;35.29;96446.38;4183285;28;5824;-67
2023/05/28 15:59:07;;;;;;;;;;;;;;;26.22;34.79;96444.34;4187943;28;5904;-68
2023/05/28 16:01:11;;;;;;;;;;;;;;;26.27;34.42;96440.72;4192070;28;5106;-67
2023/05/28 16:03:15;;;;;;;;;;;;;;;26.29;34.24;96450.19;4187965;28;5711;-71
2023/05/28 16:05:22;;;;;;;;;;;;;;;26.28;34.15;96442.38;4192173;28;5784;-71
2023/05/28 16:07:29;;;;;;;;;;;;;;;26.25;34.14;96437.53;4189538;28;5848;-71
2023/05/28 16:09:32;;;;;;;;;;;;;;;26.22;34.05;96436.22;4194873;28;5959;-71
2023/05/28 16:11:40;;;;;;;;;;;;;;;26.25;34.16;96438.31;4195874;28;5994;-70
2023/05/28 16:13:45;;;;;;;;;;;;;;;26.26;34.34;96447.25;4194087;28;5695;-66
2023/05/28 16:15:48;;;;;;;;;;;;;;;26.28;33.90;96440.44;4199946;28;5690;-71
2023/05/28 16:17:53;;;;;;;;;;;;;;;26.31;33.81;96430.91;4187537;28;5766;-72
2023/05/28 16:19:57;;;;;;;;;;;;;;;26.30;33.82;96426.59;4192127;28;5685;-71
2023/05/28 16:22:01;;;;;;;;;;;;;;;26.28;33.50;96426.09;4192227;28;5828;-67
2023/05/28 16:24:05;;;;;;;;;;;;;;;26.28;33.55;96436.94;4228278;27;5628;-73
2023/05/28 16:26:17;;;;;;;;;;;;;;;26.28;33.22;96423.41;4193365;28;5685;-75
2023/05/28 16:28:25;;;;;;;;;;;;;;;26.29;33.19;96425.00;4189472;28;5768;-71
2023/05/28 16:30:28;;;;;;;;;;;;;;;26.29;33.12;96423.09;4189359;28;6539;-71
2023/05/28 16:32:33;;;;;;;;;;;;;;;26.26;33.38;96428.28;4185039;28;5846;-71
2023/05/28 16:34:37;;;;;;;;;;;;;;;26.26;33.24;96428.28;4188466;28;5871;-71
2023/05/28 16:36:40;;;;;;;;;;;;;;;26.24;32.89;96425.09;4199581;28;5668;-72
2023/05/28 16:38:44;;;;;;;;;;;;;;;26.22;32.96;96422.69;4190189;28;5884;-71
2023/05/28 16:40:47;;;;;;;;;;;;;;;26.26;32.40;96422.88;4190308;28;5812;-72
2023/05/28 16:42:51;;;;;;;;;;;;;;;26.25;32.81;96427.47;4186638;28;5796;-74
2023/05/28 16:44:56;;;;;;;;;;;;;;;26.24;32.26;96420.47;4192552;28;6040;-76
2023/05/28 16:47:00;;;;;;;;;;;;;;;26.24;32.12;96430.50;4190202;28;5666;-71
2023/05/28 16:49:04;;;;;;;;;;;;;;;26.21;32.20;96410.25;4199684;28;5705;-78
2023/05/28 16:51:08;;;;;;;;;;;;;;;26.21;31.85;96415.66;4199870;28;5820;-72
2023/05/28 16:53:15;;;;;;;;;;;;;;;26.22;31.90;96421.88;4190369;28;5883;-71
2023/05/28 16:55:19;;;;;;;;;;;;;;;26.20;31.86;96407.84;4186864;28;5738;-73
2023/05/28 16:57:22;;;;;;;;;;;;;;;26.20;31.93;96408.63;4199921;28;5701;-68
2023/05/28 16:59:26;;;;;;;;;;;;;;;26.23;31.75;96415.34;4184035;28;5703;-68